sensor_id;sensor_type;location;lat;lon;timestamp;P1;durP1;ratioP1;P2;durP2;ratioP2
20065;SDS011;10193;48.884;9.182;2024-02-26T00:01:11;1.25;;;1.15;;
20065;SDS011;10193;48.884;9.182;2024-02-26T00:03:38;1.60;;;1.38;;
20065;SDS011;10193;48.884;9.182;2024-02-26T00:06:07;0.90;;;0.90;;
20065;SDS011;10193;48.884;9.182;2024-02-26T00:08:34;1.00;;;1.00;;
20065;SDS011;10193;48.884;9.182;2024-02-26T00:11:00;1.30;;;1.20;;
20065;SDS011;10193;48.884;9.182;2024-02-26T00:13:27;1.08;;;1.08;;
20065;SDS011;10193;48.884;9.182;2024-02-26T00:15:53;1.38;;;1.25;;
20065;SDS011;10193;48.884;9.182;2024-02-26T00:18:21;1.23;;;1.20;;
20065;SDS011;10193;48.884;9.182;2024-02-26T00:20:48;1.38;;;1.27;;
20065;SDS011;10193;48.884;9.182;2024-02-26T00:23:15;1.33;;;1.23;;
20065;SDS011;10193;48.884;9.182;2024-02-26T00:25:42;0.90;;;0.90;;
20065;SDS011;10193;48.884;9.182;2024-02-26T00:28:09;1.30;;;1.20;;
20065;SDS011;10193;48.884;9.182;2024-02-26T00:30:38;1.30;;;1.20;;
20065;SDS011;10193;48.884;9.182;2024-02-26T00:33:05;2.33;;;1.10;;
20065;SDS011;10193;48.884;9.182;2024-02-26T00:35:33;0.93;;;0.93;;
20065;SDS011;10193;48.884;9.182;2024-02-26T00:37:59;1.23;;;1.13;;
20065;SDS011;10193;48.884;9.182;2024-02-26T00:40:28;1.00;;;1.00;;
20065;SDS011;10193;48.884;9.182;2024-02-26T00:42:55;1.40;;;1.30;;
20065;SDS011;10193;48.884;9.182;2024-02-26T00:45:21;1.33;;;1.17;;
20065;SDS011;10193;48.884;9.182;2024-02-26T00:47:48;1.20;;;1.20;;
20065;SDS011;10193;48.884;9.182;2024-02-26T00:50:15;1.10;;;1.10;;
20065;SDS011;10193;48.884;9.182;2024-02-26T00:52:43;1.55;;;1.42;;
20065;SDS011;10193;48.884;9.182;2024-02-26T00:55:09;1.17;;;1.08;;
20065;SDS011;10193;48.884;9.182;2024-02-26T00:57:36;1.17;;;1.10;;
20065;SDS011;10193;48.884;9.182;2024-02-26T01:00:03;1.10;;;1.00;;
20065;SDS011;10193;48.884;9.182;2024-02-26T01:02:32;1.58;;;1.23;;
20065;SDS011;10193;48.884;9.182;2024-02-26T01:04:58;1.20;;;1.10;;
20065;SDS011;10193;48.884;9.182;2024-02-26T01:07:25;1.40;;;1.30;;
20065;SDS011;10193;48.884;9.182;2024-02-26T01:09:53;1.10;;;1.10;;
20065;SDS011;10193;48.884;9.182;2024-02-26T01:12:19;1.00;;;1.00;;
20065;SDS011;10193;48.884;9.182;2024-02-26T01:14:46;1.50;;;1.20;;
20065;SDS011;10193;48.884;9.182;2024-02-26T01:17:13;1.08;;;1.02;;
20065;SDS011;10193;48.884;9.182;2024-02-26T01:19:39;1.00;;;1.00;;
20065;SDS011;10193;48.884;9.182;2024-02-26T01:22:06;1.40;;;1.30;;
20065;SDS011;10193;48.884;9.182;2024-02-26T01:24:33;1.20;;;1.10;;
20065;SDS011;10193;48.884;9.182;2024-02-26T01:27:01;1.00;;;1.00;;
20065;SDS011;10193;48.884;9.182;2024-02-26T01:29:27;1.00;;;1.00;;
20065;SDS011;10193;48.884;9.182;2024-02-26T01:31:54;1.30;;;1.20;;
20065;SDS011;10193;48.884;9.182;2024-02-26T01:34:21;1.10;;;1.00;;
20065;SDS011;10193;48.884;9.182;2024-02-26T01:36:47;1.30;;;1.20;;
20065;SDS011;10193;48.884;9.182;2024-02-26T01:39:14;1.30;;;1.20;;
20065;SDS011;10193;48.884;9.182;2024-02-26T01:41:41;1.38;;;1.27;;
20065;SDS011;10193;48.884;9.182;2024-02-26T01:44:09;1.35;;;0.90;;
20065;SDS011;10193;48.884;9.182;2024-02-26T01:46:38;1.10;;;1.10;;
20065;SDS011;10193;48.884;9.182;2024-02-26T01:49:05;0.85;;;0.85;;
20065;SDS011;10193;48.884;9.182;2024-02-26T01:51:33;1.65;;;1.02;;
20065;SDS011;10193;48.884;9.182;2024-02-26T01:54:02;1.13;;;1.02;;
20065;SDS011;10193;48.884;9.182;2024-02-26T01:56:30;1.05;;;1.05;;
20065;SDS011;10193;48.884;9.182;2024-02-26T01:58:57;1.00;;;1.00;;
20065;SDS011;10193;48.884;9.182;2024-02-26T02:01:26;1.60;;;1.25;;
20065;SDS011;10193;48.884;9.182;2024-02-26T02:03:53;1.30;;;1.20;;
20065;SDS011;10193;48.884;9.182;2024-02-26T02:06:22;1.20;;;1.10;;
20065;SDS011;10193;48.884;9.182;2024-02-26T02:08:49;1.35;;;1.27;;
20065;SDS011;10193;48.884;9.182;2024-02-26T02:11:16;1.30;;;1.20;;
20065;SDS011;10193;48.884;9.182;2024-02-26T02:13:43;1.67;;;0.98;;
20065;SDS011;10193;48.884;9.182;2024-02-26T02:16:09;1.33;;;1.23;;
20065;SDS011;10193;48.884;9.182;2024-02-26T02:18:38;1.10;;;1.10;;
20065;SDS011;10193;48.884;9.182;2024-02-26T02:21:06;1.20;;;1.10;;
20065;SDS011;10193;48.884;9.182;2024-02-26T02:23:32;1.30;;;1.13;;
20065;SDS011;10193;48.884;9.182;2024-02-26T02:25:59;1.05;;;1.00;;
20065;SDS011;10193;48.884;9.182;2024-02-26T02:28:26;1.20;;;1.10;;
20065;SDS011;10193;48.884;9.182;2024-02-26T02:30:53;1.30;;;1.00;;
20065;SDS011;10193;48.884;9.182;2024-02-26T02:33:21;0.93;;;0.93;;
20065;SDS011;10193;48.884;9.182;2024-02-26T02:35:48;1.30;;;1.20;;
20065;SDS011;10193;48.884;9.182;2024-02-26T02:38:17;1.00;;;1.00;;
20065;SDS011;10193;48.884;9.182;2024-02-26T02:40:43;1.30;;;1.20;;
20065;SDS011;10193;48.884;9.182;2024-02-26T02:43:10;1.73;;;1.27;;
20065;SDS011;10193;48.884;9.182;2024-02-26T02:45:37;2.83;;;1.20;;
20065;SDS011;10193;48.884;9.182;2024-02-26T02:48:04;1.27;;;1.17;;
20065;SDS011;10193;48.884;9.182;2024-02-26T02:50:31;2.47;;;1.45;;
20065;SDS011;10193;48.884;9.182;2024-02-26T02:52:57;1.73;;;1.10;;
20065;SDS011;10193;48.884;9.182;2024-02-26T02:55:25;1.55;;;1.35;;
20065;SDS011;10193;48.884;9.182;2024-02-26T02:57:53;1.50;;;1.40;;
20065;SDS011;10193;48.884;9.182;2024-02-26T03:00:19;1.48;;;1.38;;
20065;SDS011;10193;48.884;9.182;2024-02-26T03:02:47;1.30;;;1.20;;
20065;SDS011;10193;48.884;9.182;2024-02-26T03:05:14;0.80;;;0.80;;
20065;SDS011;10193;48.884;9.182;2024-02-26T03:07:41;1.00;;;1.00;;
20065;SDS011;10193;48.884;9.182;2024-02-26T03:10:08;0.80;;;0.80;;
20065;SDS011;10193;48.884;9.182;2024-02-26T03:12:37;0.68;;;0.68;;
20065;SDS011;10193;48.884;9.182;2024-02-26T03:15:04;0.75;;;0.75;;
20065;SDS011;10193;48.884;9.182;2024-02-26T03:17:31;1.23;;;0.98;;
20065;SDS011;10193;48.884;9.182;2024-02-26T03:19:58;0.90;;;0.90;;
20065;SDS011;10193;48.884;9.182;2024-02-26T03:22:24;0.77;;;0.65;;
20065;SDS011;10193;48.884;9.182;2024-02-26T03:24:51;1.00;;;1.00;;
20065;SDS011;10193;48.884;9.182;2024-02-26T03:27:18;1.08;;;0.98;;
20065;SDS011;10193;48.884;9.182;2024-02-26T03:29:46;1.23;;;1.08;;
20065;SDS011;10193;48.884;9.182;2024-02-26T03:32:13;1.00;;;1.00;;
20065;SDS011;10193;48.884;9.182;2024-02-26T03:34:40;1.15;;;1.00;;
20065;SDS011;10193;48.884;9.182;2024-02-26T03:37:06;0.85;;;0.85;;
20065;SDS011;10193;48.884;9.182;2024-02-26T03:39:35;0.90;;;0.90;;
20065;SDS011;10193;48.884;9.182;2024-02-26T03:42:02;1.08;;;1.08;;
20065;SDS011;10193;48.884;9.182;2024-02-26T03:44:29;0.88;;;0.82;;
20065;SDS011;10193;48.884;9.182;2024-02-26T03:46:57;1.20;;;1.10;;
20065;SDS011;10193;48.884;9.182;2024-02-26T03:49:24;0.88;;;0.88;;
20065;SDS011;10193;48.884;9.182;2024-02-26T03:51:50;1.65;;;0.88;;
20065;SDS011;10193;48.884;9.182;2024-02-26T03:54:17;0.75;;;0.75;;
20065;SDS011;10193;48.884;9.182;2024-02-26T03:56:44;0.80;;;0.80;;
20065;SDS011;10193;48.884;9.182;2024-02-26T03:59:09;0.90;;;0.90;;
20065;SDS011;10193;48.884;9.182;2024-02-26T04:01:36;0.88;;;0.88;;
20065;SDS011;10193;48.884;9.182;2024-02-26T04:04:05;0.80;;;0.80;;
20065;SDS011;10193;48.884;9.182;2024-02-26T04:06:32;0.90;;;0.90;;
20065;SDS011;10193;48.884;9.182;2024-02-26T04:08:59;1.20;;;1.00;;
20065;SDS011;10193;48.884;9.182;2024-02-26T04:11:28;1.30;;;1.20;;
20065;SDS011;10193;48.884;9.182;2024-02-26T04:13:55;0.95;;;0.93;;
20065;SDS011;10193;48.884;9.182;2024-02-26T04:16:22;1.25;;;1.15;;
20065;SDS011;10193;48.884;9.182;2024-02-26T04:18:48;1.33;;;1.23;;
20065;SDS011;10193;48.884;9.182;2024-02-26T04:21:16;1.20;;;1.10;;
20065;SDS011;10193;48.884;9.182;2024-02-26T04:23:43;1.27;;;1.17;;
20065;SDS011;10193;48.884;9.182;2024-02-26T04:26:10;1.30;;;1.20;;
20065;SDS011;10193;48.884;9.182;2024-02-26T04:28:36;1.92;;;1.25;;
20065;SDS011;10193;48.884;9.182;2024-02-26T04:31:03;1.20;;;1.10;;
20065;SDS011;10193;48.884;9.182;2024-02-26T04:33:30;0.93;;;0.93;;
20065;SDS011;10193;48.884;9.182;2024-02-26T04:35:59;0.95;;;0.90;;
20065;SDS011;10193;48.884;9.182;2024-02-26T04:38:28;1.13;;;0.85;;
20065;SDS011;10193;48.884;9.182;2024-02-26T04:40:54;0.82;;;0.82;;
20065;SDS011;10193;48.884;9.182;2024-02-26T04:43:21;1.17;;;1.15;;
20065;SDS011;10193;48.884;9.182;2024-02-26T04:45:47;1.20;;;1.10;;
20065;SDS011;10193;48.884;9.182;2024-02-26T04:48:14;2.10;;;1.00;;
20065;SDS011;10193;48.884;9.182;2024-02-26T04:50:41;1.85;;;1.10;;
20065;SDS011;10193;48.884;9.182;2024-02-26T04:53:08;1.48;;;0.93;;
20065;SDS011;10193;48.884;9.182;2024-02-26T04:55:36;1.25;;;1.15;;
20065;SDS011;10193;48.884;9.182;2024-02-26T04:58:02;1.05;;;1.00;;
20065;SDS011;10193;48.884;9.182;2024-02-26T05:00:29;1.08;;;1.02;;
20065;SDS011;10193;48.884;9.182;2024-02-26T05:02:56;1.10;;;1.10;;
20065;SDS011;10193;48.884;9.182;2024-02-26T05:05:22;1.63;;;1.20;;
20065;SDS011;10193;48.884;9.182;2024-02-26T05:07:49;1.55;;;1.45;;
20065;SDS011;10193;48.884;9.182;2024-02-26T05:10:16;2.28;;;1.63;;
20065;SDS011;10193;48.884;9.182;2024-02-26T05:12:44;1.20;;;1.10;;
20065;SDS011;10193;48.884;9.182;2024-02-26T05:15:11;1.40;;;1.30;;
20065;SDS011;10193;48.884;9.182;2024-02-26T05:17:43;1.30;;;1.20;;
20065;SDS011;10193;48.884;9.182;2024-02-26T05:20:10;1.38;;;1.13;;
20065;SDS011;10193;48.884;9.182;2024-02-26T05:22:37;0.90;;;0.90;;
20065;SDS011;10193;48.884;9.182;2024-02-26T05:25:03;0.90;;;0.90;;
20065;SDS011;10193;48.884;9.182;2024-02-26T05:27:30;0.88;;;0.88;;
20065;SDS011;10193;48.884;9.182;2024-02-26T05:29:58;1.88;;;1.23;;
20065;SDS011;10193;48.884;9.182;2024-02-26T05:32:25;1.52;;;1.10;;
20065;SDS011;10193;48.884;9.182;2024-02-26T05:34:51;1.10;;;1.00;;
20065;SDS011;10193;48.884;9.182;2024-02-26T05:37:18;1.15;;;1.05;;
20065;SDS011;10193;48.884;9.182;2024-02-26T05:39:45;1.30;;;1.20;;
20065;SDS011;10193;48.884;9.182;2024-02-26T05:42:10;1.20;;;1.10;;
20065;SDS011;10193;48.884;9.182;2024-02-26T05:44:37;1.23;;;1.05;;
20065;SDS011;10193;48.884;9.182;2024-02-26T05:47:05;2.17;;;1.20;;
20065;SDS011;10193;48.884;9.182;2024-02-26T05:49:32;1.10;;;1.10;;
20065;SDS011;10193;48.884;9.182;2024-02-26T05:51:58;1.88;;;1.60;;
20065;SDS011;10193;48.884;9.182;2024-02-26T05:54:25;1.40;;;1.30;;
20065;SDS011;10193;48.884;9.182;2024-02-26T05:56:52;1.40;;;1.25;;
20065;SDS011;10193;48.884;9.182;2024-02-26T05:59:18;2.63;;;1.40;;
20065;SDS011;10193;48.884;9.182;2024-02-26T06:01:45;1.58;;;1.48;;
20065;SDS011;10193;48.884;9.182;2024-02-26T06:04:13;1.73;;;1.63;;
20065;SDS011;10193;48.884;9.182;2024-02-26T06:06:40;1.30;;;1.20;;
20065;SDS011;10193;48.884;9.182;2024-02-26T06:09:06;3.30;;;1.70;;
20065;SDS011;10193;48.884;9.182;2024-02-26T06:11:33;1.40;;;1.30;;
20065;SDS011;10193;48.884;9.182;2024-02-26T06:14:00;1.50;;;1.40;;
20065;SDS011;10193;48.884;9.182;2024-02-26T06:16:26;1.40;;;1.30;;
20065;SDS011;10193;48.884;9.182;2024-02-26T06:18:53;1.38;;;1.27;;
20065;SDS011;10193;48.884;9.182;2024-02-26T06:21:21;1.45;;;1.35;;
20065;SDS011;10193;48.884;9.182;2024-02-26T06:23:48;1.45;;;1.27;;
20065;SDS011;10193;48.884;9.182;2024-02-26T06:26:15;1.30;;;1.20;;
20065;SDS011;10193;48.884;9.182;2024-02-26T06:28:42;1.40;;;1.30;;
20065;SDS011;10193;48.884;9.182;2024-02-26T06:31:09;1.95;;;1.80;;
20065;SDS011;10193;48.884;9.182;2024-02-26T06:33:36;1.60;;;1.50;;
20065;SDS011;10193;48.884;9.182;2024-02-26T06:36:03;1.40;;;1.30;;
20065;SDS011;10193;48.884;9.182;2024-02-26T06:38:31;1.48;;;1.38;;
20065;SDS011;10193;48.884;9.182;2024-02-26T06:40:58;1.70;;;1.60;;
20065;SDS011;10193;48.884;9.182;2024-02-26T06:43:25;1.42;;;1.33;;
20065;SDS011;10193;48.884;9.182;2024-02-26T06:45:51;1.52;;;1.38;;
20065;SDS011;10193;48.884;9.182;2024-02-26T06:48:18;1.60;;;1.50;;
20065;SDS011;10193;48.884;9.182;2024-02-26T06:50:45;1.45;;;1.35;;
20065;SDS011;10193;48.884;9.182;2024-02-26T06:53:11;1.67;;;1.35;;
20065;SDS011;10193;48.884;9.182;2024-02-26T06:55:39;1.67;;;1.48;;
20065;SDS011;10193;48.884;9.182;2024-02-26T06:58:06;1.40;;;1.30;;
20065;SDS011;10193;48.884;9.182;2024-02-26T07:00:34;1.33;;;1.23;;
20065;SDS011;10193;48.884;9.182;2024-02-26T07:03:00;1.40;;;1.30;;
20065;SDS011;10193;48.884;9.182;2024-02-26T07:05:27;1.65;;;1.45;;
20065;SDS011;10193;48.884;9.182;2024-02-26T07:07:55;1.75;;;1.65;;
20065;SDS011;10193;48.884;9.182;2024-02-26T07:10:21;1.63;;;1.52;;
20065;SDS011;10193;48.884;9.182;2024-02-26T07:12:49;1.60;;;1.48;;
20065;SDS011;10193;48.884;9.182;2024-02-26T07:15:16;1.60;;;1.50;;
20065;SDS011;10193;48.884;9.182;2024-02-26T07:17:43;2.35;;;1.65;;
20065;SDS011;10193;48.884;9.182;2024-02-26T07:20:12;1.77;;;1.50;;
20065;SDS011;10193;48.884;9.182;2024-02-26T07:22:39;2.00;;;1.90;;
20065;SDS011;10193;48.884;9.182;2024-02-26T07:25:07;1.73;;;1.60;;
20065;SDS011;10193;48.884;9.182;2024-02-26T07:27:38;1.50;;;1.40;;
20065;SDS011;10193;48.884;9.182;2024-02-26T07:30:06;2.35;;;2.15;;
20065;SDS011;10193;48.884;9.182;2024-02-26T07:32:34;2.13;;;1.92;;
20065;SDS011;10193;48.884;9.182;2024-02-26T07:35:01;1.73;;;1.63;;
20065;SDS011;10193;48.884;9.182;2024-02-26T07:37:27;1.90;;;1.80;;
20065;SDS011;10193;48.884;9.182;2024-02-26T07:39:54;1.70;;;1.60;;
20065;SDS011;10193;48.884;9.182;2024-02-26T07:42:21;1.60;;;1.50;;
20065;SDS011;10193;48.884;9.182;2024-02-26T07:44:47;1.75;;;1.65;;
20065;SDS011;10193;48.884;9.182;2024-02-26T07:47:15;1.50;;;1.40;;
20065;SDS011;10193;48.884;9.182;2024-02-26T07:49:42;1.65;;;1.55;;
20065;SDS011;10193;48.884;9.182;2024-02-26T07:52:08;2.00;;;1.80;;
20065;SDS011;10193;48.884;9.182;2024-02-26T07:54:34;1.90;;;1.80;;
20065;SDS011;10193;48.884;9.182;2024-02-26T07:57:01;1.70;;;1.60;;
20065;SDS011;10193;48.884;9.182;2024-02-26T07:59:30;2.13;;;1.85;;
20065;SDS011;10193;48.884;9.182;2024-02-26T08:01:57;2.08;;;1.88;;
20065;SDS011;10193;48.884;9.182;2024-02-26T08:04:25;1.88;;;1.73;;
20065;SDS011;10193;48.884;9.182;2024-02-26T08:06:52;3.03;;;1.70;;
20065;SDS011;10193;48.884;9.182;2024-02-26T08:09:18;2.15;;;1.90;;
20065;SDS011;10193;48.884;9.182;2024-02-26T08:11:45;2.63;;;1.77;;
20065;SDS011;10193;48.884;9.182;2024-02-26T08:14:12;1.70;;;1.60;;
20065;SDS011;10193;48.884;9.182;2024-02-26T08:16:39;2.28;;;1.90;;
20065;SDS011;10193;48.884;9.182;2024-02-26T08:19:05;2.08;;;1.60;;
20065;SDS011;10193;48.884;9.182;2024-02-26T08:21:33;2.13;;;1.92;;
20065;SDS011;10193;48.884;9.182;2024-02-26T08:24:01;1.80;;;1.70;;
20065;SDS011;10193;48.884;9.182;2024-02-26T08:26:28;2.20;;;2.00;;
20065;SDS011;10193;48.884;9.182;2024-02-26T08:28:55;2.28;;;2.08;;
20065;SDS011;10193;48.884;9.182;2024-02-26T08:31:23;2.15;;;1.95;;
20065;SDS011;10193;48.884;9.182;2024-02-26T08:33:49;2.88;;;2.17;;
20065;SDS011;10193;48.884;9.182;2024-02-26T08:36:16;3.47;;;2.10;;
20065;SDS011;10193;48.884;9.182;2024-02-26T08:38:44;2.38;;;1.92;;
20065;SDS011;10193;48.884;9.182;2024-02-26T08:41:11;2.78;;;2.30;;
20065;SDS011;10193;48.884;9.182;2024-02-26T08:43:38;2.50;;;2.30;;
20065;SDS011;10193;48.884;9.182;2024-02-26T08:46:07;1.98;;;1.88;;
20065;SDS011;10193;48.884;9.182;2024-02-26T08:48:35;3.05;;;1.90;;
20065;SDS011;10193;48.884;9.182;2024-02-26T08:51:04;1.90;;;1.80;;
20065;SDS011;10193;48.884;9.182;2024-02-26T08:53:31;2.08;;;1.95;;
20065;SDS011;10193;48.884;9.182;2024-02-26T08:55:59;1.98;;;1.88;;
20065;SDS011;10193;48.884;9.182;2024-02-26T08:58:26;2.05;;;1.85;;
20065;SDS011;10193;48.884;9.182;2024-02-26T09:00:53;1.75;;;1.35;;
20065;SDS011;10193;48.884;9.182;2024-02-26T09:03:20;1.92;;;1.65;;
20065;SDS011;10193;48.884;9.182;2024-02-26T09:05:47;2.33;;;1.83;;
20065;SDS011;10193;48.884;9.182;2024-02-26T09:08:14;2.08;;;1.73;;
20065;SDS011;10193;48.884;9.182;2024-02-26T09:10:41;2.65;;;1.90;;
20065;SDS011;10193;48.884;9.182;2024-02-26T09:13:09;3.60;;;1.77;;
20065;SDS011;10193;48.884;9.182;2024-02-26T09:15:36;1.90;;;1.80;;
20065;SDS011;10193;48.884;9.182;2024-02-26T09:18:03;1.90;;;1.80;;
20065;SDS011;10193;48.884;9.182;2024-02-26T09:20:29;1.90;;;1.80;;
20065;SDS011;10193;48.884;9.182;2024-02-26T09:22:56;1.80;;;1.70;;
20065;SDS011;10193;48.884;9.182;2024-02-26T09:25:23;1.95;;;1.85;;
20065;SDS011;10193;48.884;9.182;2024-02-26T09:27:49;2.80;;;1.70;;
20065;SDS011;10193;48.884;9.182;2024-02-26T09:30:17;1.75;;;1.65;;
20065;SDS011;10193;48.884;9.182;2024-02-26T09:32:45;1.30;;;1.30;;
20065;SDS011;10193;48.884;9.182;2024-02-26T09:35:13;1.58;;;1.48;;
20065;SDS011;10193;48.884;9.182;2024-02-26T09:37:39;1.50;;;1.40;;
20065;SDS011;10193;48.884;9.182;2024-02-26T09:40:08;1.50;;;1.25;;
20065;SDS011;10193;48.884;9.182;2024-02-26T09:42:36;1.48;;;1.38;;
20065;SDS011;10193;48.884;9.182;2024-02-26T09:45:09;2.17;;;1.40;;
20065;SDS011;10193;48.884;9.182;2024-02-26T09:47:39;1.38;;;1.27;;
20065;SDS011;10193;48.884;9.182;2024-02-26T09:50:09;1.30;;;1.20;;
20065;SDS011;10193;48.884;9.182;2024-02-26T09:52:37;1.63;;;1.52;;
20065;SDS011;10193;48.884;9.182;2024-02-26T09:55:04;1.58;;;1.48;;
20065;SDS011;10193;48.884;9.182;2024-02-26T09:57:33;1.67;;;1.58;;
20065;SDS011;10193;48.884;9.182;2024-02-26T10:00:01;1.55;;;1.45;;
20065;SDS011;10193;48.884;9.182;2024-02-26T10:02:30;1.45;;;1.35;;
20065;SDS011;10193;48.884;9.182;2024-02-26T10:05:00;1.20;;;1.20;;
20065;SDS011;10193;48.884;9.182;2024-02-26T10:07:30;1.52;;;1.42;;
20065;SDS011;10193;48.884;9.182;2024-02-26T10:09:57;1.40;;;1.30;;
20065;SDS011;10193;48.884;9.182;2024-02-26T10:12:24;2.00;;;1.40;;
20065;SDS011;10193;48.884;9.182;2024-02-26T10:14:53;1.65;;;1.55;;
20065;SDS011;10193;48.884;9.182;2024-02-26T10:17:20;1.50;;;1.40;;
20065;SDS011;10193;48.884;9.182;2024-02-26T10:19:47;1.75;;;1.65;;
20065;SDS011;10193;48.884;9.182;2024-02-26T10:22:17;2.05;;;1.20;;
20065;SDS011;10193;48.884;9.182;2024-02-26T10:24:44;1.40;;;1.30;;
20065;SDS011;10193;48.884;9.182;2024-02-26T10:27:13;1.58;;;1.48;;
20065;SDS011;10193;48.884;9.182;2024-02-26T10:29:41;1.50;;;1.40;;
20065;SDS011;10193;48.884;9.182;2024-02-26T10:32:08;1.52;;;1.42;;
20065;SDS011;10193;48.884;9.182;2024-02-26T10:34:36;1.58;;;1.48;;
20065;SDS011;10193;48.884;9.182;2024-02-26T10:37:04;1.50;;;1.40;;
20065;SDS011;10193;48.884;9.182;2024-02-26T10:39:32;1.50;;;1.40;;
20065;SDS011;10193;48.884;9.182;2024-02-26T10:41:59;1.60;;;1.50;;
20065;SDS011;10193;48.884;9.182;2024-02-26T10:44:31;1.45;;;1.35;;
20065;SDS011;10193;48.884;9.182;2024-02-26T10:46:58;1.38;;;1.30;;
20065;SDS011;10193;48.884;9.182;2024-02-26T10:49:25;1.10;;;1.10;;
20065;SDS011;10193;48.884;9.182;2024-02-26T10:51:52;1.25;;;1.15;;
20065;SDS011;10193;48.884;9.182;2024-02-26T10:54:23;1.67;;;1.58;;
20065;SDS011;10193;48.884;9.182;2024-02-26T10:56:53;1.52;;;1.42;;
20065;SDS011;10193;48.884;9.182;2024-02-26T10:59:22;1.30;;;1.20;;
20065;SDS011;10193;48.884;9.182;2024-02-26T11:01:48;1.35;;;1.25;;
20065;SDS011;10193;48.884;9.182;2024-02-26T11:04:16;1.63;;;1.30;;
20065;SDS011;10193;48.884;9.182;2024-02-26T11:06:44;1.60;;;1.50;;
20065;SDS011;10193;48.884;9.182;2024-02-26T11:09:12;1.45;;;1.35;;
20065;SDS011;10193;48.884;9.182;2024-02-26T11:11:40;2.17;;;1.60;;
20065;SDS011;10193;48.884;9.182;2024-02-26T11:14:09;1.80;;;1.70;;
20065;SDS011;10193;48.884;9.182;2024-02-26T11:16:38;1.35;;;1.25;;
20065;SDS011;10193;48.884;9.182;2024-02-26T11:19:06;1.55;;;1.45;;
20065;SDS011;10193;48.884;9.182;2024-02-26T11:21:35;1.45;;;1.35;;
20065;SDS011;10193;48.884;9.182;2024-02-26T11:24:06;1.50;;;1.40;;
20065;SDS011;10193;48.884;9.182;2024-02-26T11:26:34;1.90;;;1.27;;
20065;SDS011;10193;48.884;9.182;2024-02-26T11:29:05;1.23;;;1.13;;
20065;SDS011;10193;48.884;9.182;2024-02-26T11:31:37;1.50;;;1.40;;
20065;SDS011;10193;48.884;9.182;2024-02-26T11:34:04;1.17;;;1.17;;
20065;SDS011;10193;48.884;9.182;2024-02-26T11:36:33;1.50;;;1.40;;
20065;SDS011;10193;48.884;9.182;2024-02-26T11:39:00;1.27;;;1.20;;
20065;SDS011;10193;48.884;9.182;2024-02-26T11:41:27;1.70;;;1.20;;
20065;SDS011;10193;48.884;9.182;2024-02-26T11:43:57;1.50;;;1.20;;
20065;SDS011;10193;48.884;9.182;2024-02-26T11:46:27;1.25;;;1.17;;
20065;SDS011;10193;48.884;9.182;2024-02-26T11:48:56;1.13;;;0.90;;
20065;SDS011;10193;48.884;9.182;2024-02-26T11:51:25;1.60;;;1.23;;
20065;SDS011;10193;48.884;9.182;2024-02-26T11:53:52;1.30;;;1.10;;
20065;SDS011;10193;48.884;9.182;2024-02-26T11:56:22;2.25;;;1.10;;
20065;SDS011;10193;48.884;9.182;2024-02-26T11:58:53;1.40;;;1.20;;
20065;SDS011;10193;48.884;9.182;2024-02-26T12:01:37;1.00;;;1.00;;
20065;SDS011;10193;48.884;9.182;2024-02-26T12:04:07;1.08;;;1.02;;
20065;SDS011;10193;48.884;9.182;2024-02-26T12:06:40;3.63;;;1.00;;
20065;SDS011;10193;48.884;9.182;2024-02-26T12:09:32;1.63;;;1.08;;
20065;SDS011;10193;48.884;9.182;2024-02-26T12:12:03;2.28;;;0.95;;
20065;SDS011;10193;48.884;9.182;2024-02-26T12:14:32;1.00;;;0.95;;
20065;SDS011;10193;48.884;9.182;2024-02-26T12:17:02;3.05;;;1.27;;
20065;SDS011;10193;48.884;9.182;2024-02-26T12:19:32;1.77;;;1.20;;
20065;SDS011;10193;48.884;9.182;2024-02-26T12:21:59;0.75;;;0.75;;
20065;SDS011;10193;48.884;9.182;2024-02-26T12:24:26;1.00;;;1.00;;
20065;SDS011;10193;48.884;9.182;2024-02-26T12:26:53;1.38;;;1.02;;
20065;SDS011;10193;48.884;9.182;2024-02-26T12:29:19;1.40;;;1.30;;
20065;SDS011;10193;48.884;9.182;2024-02-26T12:31:46;1.08;;;1.08;;
20065;SDS011;10193;48.884;9.182;2024-02-26T12:34:15;1.25;;;1.17;;
20065;SDS011;10193;48.884;9.182;2024-02-26T12:36:42;1.20;;;0.90;;
20065;SDS011;10193;48.884;9.182;2024-02-26T12:39:09;0.85;;;0.85;;
20065;SDS011;10193;48.884;9.182;2024-02-26T12:41:35;0.98;;;0.85;;
20065;SDS011;10193;48.884;9.182;2024-02-26T12:44:04;0.90;;;0.90;;
20065;SDS011;10193;48.884;9.182;2024-02-26T12:46:32;1.98;;;1.30;;
20065;SDS011;10193;48.884;9.182;2024-02-26T12:48:59;1.20;;;1.10;;
20065;SDS011;10193;48.884;9.182;2024-02-26T12:51:27;1.02;;;1.02;;
20065;SDS011;10193;48.884;9.182;2024-02-26T12:53:54;1.00;;;1.00;;
20065;SDS011;10193;48.884;9.182;2024-02-26T12:56:22;1.27;;;1.17;;
20065;SDS011;10193;48.884;9.182;2024-02-26T12:58:50;0.85;;;0.85;;
20065;SDS011;10193;48.884;9.182;2024-02-26T13:01:17;1.58;;;0.90;;
20065;SDS011;10193;48.884;9.182;2024-02-26T13:03:46;0.93;;;0.90;;
20065;SDS011;10193;48.884;9.182;2024-02-26T13:06:13;1.13;;;1.05;;
20065;SDS011;10193;48.884;9.182;2024-02-26T13:08:41;0.90;;;0.90;;
20065;SDS011;10193;48.884;9.182;2024-02-26T13:11:08;0.88;;;0.88;;
20065;SDS011;10193;48.884;9.182;2024-02-26T13:13:35;1.27;;;0.80;;
20065;SDS011;10193;48.884;9.182;2024-02-26T13:16:02;0.73;;;0.70;;
20065;SDS011;10193;48.884;9.182;2024-02-26T13:18:30;0.88;;;0.88;;
20065;SDS011;10193;48.884;9.182;2024-02-26T13:21:07;0.75;;;0.75;;
20065;SDS011;10193;48.884;9.182;2024-02-26T13:23:35;0.98;;;0.98;;
20065;SDS011;10193;48.884;9.182;2024-02-26T13:26:03;0.82;;;0.82;;
20065;SDS011;10193;48.884;9.182;2024-02-26T13:28:30;1.13;;;0.98;;
20065;SDS011;10193;48.884;9.182;2024-02-26T13:30:58;0.80;;;0.80;;
20065;SDS011;10193;48.884;9.182;2024-02-26T13:33:25;0.70;;;0.70;;
20065;SDS011;10193;48.884;9.182;2024-02-26T13:35:53;0.93;;;0.90;;
20065;SDS011;10193;48.884;9.182;2024-02-26T13:38:21;0.65;;;0.65;;
20065;SDS011;10193;48.884;9.182;2024-02-26T13:40:47;0.50;;;0.50;;
20065;SDS011;10193;48.884;9.182;2024-02-26T13:43:16;0.70;;;0.70;;
20065;SDS011;10193;48.884;9.182;2024-02-26T13:45:44;0.60;;;0.60;;
20065;SDS011;10193;48.884;9.182;2024-02-26T13:48:11;1.00;;;0.60;;
20065;SDS011;10193;48.884;9.182;2024-02-26T13:50:39;0.57;;;0.57;;
20065;SDS011;10193;48.884;9.182;2024-02-26T13:53:06;0.52;;;0.52;;
20065;SDS011;10193;48.884;9.182;2024-02-26T13:55:33;0.40;;;0.40;;
20065;SDS011;10193;48.884;9.182;2024-02-26T13:58:00;0.32;;;0.32;;
20065;SDS011;10193;48.884;9.182;2024-02-26T14:00:28;0.60;;;0.30;;
20065;SDS011;10193;48.884;9.182;2024-02-26T14:02:57;0.52;;;0.30;;
20065;SDS011;10193;48.884;9.182;2024-02-26T14:05:24;0.45;;;0.45;;
20065;SDS011;10193;48.884;9.182;2024-02-26T14:07:50;0.35;;;0.35;;
20065;SDS011;10193;48.884;9.182;2024-02-26T14:10:18;0.63;;;0.63;;
20065;SDS011;10193;48.884;9.182;2024-02-26T14:12:45;0.55;;;0.55;;
20065;SDS011;10193;48.884;9.182;2024-02-26T14:15:11;0.30;;;0.30;;
20065;SDS011;10193;48.884;9.182;2024-02-26T14:17:39;0.40;;;0.40;;
20065;SDS011;10193;48.884;9.182;2024-02-26T14:20:06;0.43;;;0.40;;
20065;SDS011;10193;48.884;9.182;2024-02-26T14:22:34;0.30;;;0.30;;
20065;SDS011;10193;48.884;9.182;2024-02-26T14:25:00;0.30;;;0.30;;
20065;SDS011;10193;48.884;9.182;2024-02-26T14:27:27;0.28;;;0.28;;
20065;SDS011;10193;48.884;9.182;2024-02-26T14:29:54;0.30;;;0.30;;
20065;SDS011;10193;48.884;9.182;2024-02-26T14:32:21;0.30;;;0.30;;
20065;SDS011;10193;48.884;9.182;2024-02-26T14:34:49;0.30;;;0.30;;
20065;SDS011;10193;48.884;9.182;2024-02-26T14:37:16;0.40;;;0.30;;
20065;SDS011;10193;48.884;9.182;2024-02-26T14:39:42;0.30;;;0.30;;
20065;SDS011;10193;48.884;9.182;2024-02-26T14:42:09;0.57;;;0.30;;
20065;SDS011;10193;48.884;9.182;2024-02-26T14:44:36;0.30;;;0.30;;
20065;SDS011;10193;48.884;9.182;2024-02-26T14:47:02;0.25;;;0.25;;
20065;SDS011;10193;48.884;9.182;2024-02-26T14:49:29;0.30;;;0.30;;